sensor_id;sensor_type;location;lat;lon;timestamp;P1;durP1;ratioP1;P2;durP2;ratioP2
66169;SDS011;66757;44.024;20.456;2023-04-07T00:02:18;95.20;;;56.13;;
66169;SDS011;66757;44.024;20.456;2023-04-07T00:04:44;197.27;;;103.45;;
66169;SDS011;66757;44.024;20.456;2023-04-07T00:07:10;143.13;;;79.38;;
66169;SDS011;66757;44.024;20.456;2023-04-07T00:09:35;88.53;;;51.85;;
66169;SDS011;66757;44.024;20.456;2023-04-07T00:12:01;94.25;;;54.20;;
66169;SDS011;66757;44.024;20.456;2023-04-07T00:14:27;94.18;;;52.55;;
66169;SDS011;66757;44.024;20.456;2023-04-07T00:16:52;100.93;;;55.67;;
66169;SDS011;66757;44.024;20.456;2023-04-07T00:19:17;116.70;;;61.97;;
66169;SDS011;66757;44.024;20.456;2023-04-07T00:21:43;101.72;;;54.70;;
66169;SDS011;66757;44.024;20.456;2023-04-07T00:24:08;114.38;;;62.63;;
66169;SDS011;66757;44.024;20.456;2023-04-07T00:26:33;93.15;;;49.75;;
66169;SDS011;66757;44.024;20.456;2023-04-07T00:28:59;84.53;;;47.20;;
66169;SDS011;66757;44.024;20.456;2023-04-07T00:31:24;80.88;;;46.08;;
66169;SDS011;66757;44.024;20.456;2023-04-07T00:33:50;76.03;;;42.25;;
66169;SDS011;66757;44.024;20.456;2023-04-07T00:36:15;71.93;;;41.67;;
66169;SDS011;66757;44.024;20.456;2023-04-07T00:38:41;79.07;;;43.38;;
66169;SDS011;66757;44.024;20.456;2023-04-07T00:41:06;102.90;;;57.92;;
66169;SDS011;66757;44.024;20.456;2023-04-07T00:43:31;101.88;;;55.17;;
66169;SDS011;66757;44.024;20.456;2023-04-07T00:45:57;100.88;;;58.08;;
66169;SDS011;66757;44.024;20.456;2023-04-07T00:48:22;90.15;;;51.35;;
66169;SDS011;66757;44.024;20.456;2023-04-07T00:50:48;80.18;;;44.15;;
66169;SDS011;66757;44.024;20.456;2023-04-07T00:53:13;80.90;;;44.47;;
66169;SDS011;66757;44.024;20.456;2023-04-07T00:55:39;77.22;;;44.10;;
66169;SDS011;66757;44.024;20.456;2023-04-07T00:58:04;100.95;;;55.40;;
66169;SDS011;66757;44.024;20.456;2023-04-07T01:00:30;103.15;;;56.22;;
66169;SDS011;66757;44.024;20.456;2023-04-07T01:02:57;112.15;;;60.35;;
66169;SDS011;66757;44.024;20.456;2023-04-07T01:05:33;104.13;;;58.13;;
66169;SDS011;66757;44.024;20.456;2023-04-07T01:10:27;92.28;;;54.47;;
66169;SDS011;66757;44.024;20.456;2023-04-07T01:13:05;102.97;;;61.13;;
66169;SDS011;66757;44.024;20.456;2023-04-07T01:15:31;104.53;;;59.58;;
66169;SDS011;66757;44.024;20.456;2023-04-07T01:18:06;63.00;;;36.58;;
66169;SDS011;66757;44.024;20.456;2023-04-07T01:23:01;64.43;;;37.20;;
66169;SDS011;66757;44.024;20.456;2023-04-07T01:25:43;73.90;;;43.08;;
66169;SDS011;66757;44.024;20.456;2023-04-07T01:28:32;73.68;;;42.17;;
66169;SDS011;66757;44.024;20.456;2023-04-07T01:31:04;72.97;;;40.55;;
66169;SDS011;66757;44.024;20.456;2023-04-07T01:33:31;131.73;;;79.00;;
66169;SDS011;66757;44.024;20.456;2023-04-07T01:35:57;73.68;;;41.28;;
66169;SDS011;66757;44.024;20.456;2023-04-07T01:38:23;83.95;;;44.75;;
66169;SDS011;66757;44.024;20.456;2023-04-07T01:40:50;67.55;;;38.63;;
66169;SDS011;66757;44.024;20.456;2023-04-07T01:43:16;61.70;;;36.17;;
66169;SDS011;66757;44.024;20.456;2023-04-07T01:45:42;57.75;;;34.15;;
66169;SDS011;66757;44.024;20.456;2023-04-07T01:48:08;75.72;;;43.30;;
66169;SDS011;66757;44.024;20.456;2023-04-07T01:50:34;70.93;;;39.83;;
66169;SDS011;66757;44.024;20.456;2023-04-07T01:53:00;59.83;;;35.20;;
66169;SDS011;66757;44.024;20.456;2023-04-07T01:55:26;52.50;;;31.20;;
66169;SDS011;66757;44.024;20.456;2023-04-07T01:57:54;51.47;;;30.65;;
66169;SDS011;66757;44.024;20.456;2023-04-07T02:00:19;51.42;;;29.30;;
66169;SDS011;66757;44.024;20.456;2023-04-07T02:02:45;48.22;;;27.40;;
66169;SDS011;66757;44.024;20.456;2023-04-07T02:05:13;47.63;;;29.25;;
66169;SDS011;66757;44.024;20.456;2023-04-07T02:07:52;44.00;;;28.08;;
66169;SDS011;66757;44.024;20.456;2023-04-07T02:10:22;56.15;;;33.30;;
66169;SDS011;66757;44.024;20.456;2023-04-07T02:12:48;56.42;;;33.63;;
66169;SDS011;66757;44.024;20.456;2023-04-07T02:15:13;55.70;;;34.22;;
66169;SDS011;66757;44.024;20.456;2023-04-07T02:17:40;59.22;;;34.25;;
66169;SDS011;66757;44.024;20.456;2023-04-07T02:20:07;54.20;;;31.02;;
66169;SDS011;66757;44.024;20.456;2023-04-07T02:22:34;74.80;;;39.45;;
66169;SDS011;66757;44.024;20.456;2023-04-07T02:24:59;74.13;;;39.80;;
66169;SDS011;66757;44.024;20.456;2023-04-07T02:27:25;60.38;;;32.10;;
66169;SDS011;66757;44.024;20.456;2023-04-07T02:29:50;60.30;;;33.60;;
66169;SDS011;66757;44.024;20.456;2023-04-07T02:32:15;70.72;;;37.47;;
66169;SDS011;66757;44.024;20.456;2023-04-07T02:34:42;69.68;;;37.03;;
66169;SDS011;66757;44.024;20.456;2023-04-07T02:37:07;52.75;;;29.42;;
66169;SDS011;66757;44.024;20.456;2023-04-07T02:39:32;51.55;;;32.92;;
66169;SDS011;66757;44.024;20.456;2023-04-07T02:41:58;53.75;;;30.85;;
66169;SDS011;66757;44.024;20.456;2023-04-07T02:44:23;57.60;;;33.53;;
66169;SDS011;66757;44.024;20.456;2023-04-07T02:46:48;71.80;;;40.30;;
66169;SDS011;66757;44.024;20.456;2023-04-07T02:49:13;62.92;;;36.80;;
66169;SDS011;66757;44.024;20.456;2023-04-07T02:51:39;67.35;;;38.20;;
66169;SDS011;66757;44.024;20.456;2023-04-07T02:54:04;52.65;;;30.33;;
66169;SDS011;66757;44.024;20.456;2023-04-07T02:56:29;52.65;;;29.08;;
66169;SDS011;66757;44.024;20.456;2023-04-07T02:58:55;52.40;;;29.60;;
66169;SDS011;66757;44.024;20.456;2023-04-07T03:01:20;44.03;;;27.27;;
66169;SDS011;66757;44.024;20.456;2023-04-07T03:03:47;64.53;;;33.58;;
66169;SDS011;66757;44.024;20.456;2023-04-07T03:06:12;67.85;;;35.53;;
66169;SDS011;66757;44.024;20.456;2023-04-07T03:08:38;64.07;;;36.30;;
66169;SDS011;66757;44.024;20.456;2023-04-07T03:11:03;63.15;;;35.22;;
66169;SDS011;66757;44.024;20.456;2023-04-07T03:13:28;64.35;;;33.30;;
66169;SDS011;66757;44.024;20.456;2023-04-07T03:15:55;66.35;;;35.13;;
66169;SDS011;66757;44.024;20.456;2023-04-07T03:18:20;60.90;;;32.40;;
66169;SDS011;66757;44.024;20.456;2023-04-07T03:20:47;59.05;;;31.42;;
66169;SDS011;66757;44.024;20.456;2023-04-07T03:23:12;56.40;;;30.35;;
66169;SDS011;66757;44.024;20.456;2023-04-07T03:25:37;51.83;;;29.38;;
66169;SDS011;66757;44.024;20.456;2023-04-07T03:28:03;47.45;;;26.70;;
66169;SDS011;66757;44.024;20.456;2023-04-07T03:30:28;45.20;;;26.73;;
66169;SDS011;66757;44.024;20.456;2023-04-07T03:32:53;47.20;;;27.60;;
66169;SDS011;66757;44.024;20.456;2023-04-07T03:35:19;52.85;;;28.75;;
66169;SDS011;66757;44.024;20.456;2023-04-07T03:37:44;55.45;;;30.95;;
66169;SDS011;66757;44.024;20.456;2023-04-07T03:40:10;64.72;;;33.33;;
66169;SDS011;66757;44.024;20.456;2023-04-07T03:42:35;59.75;;;30.23;;
66169;SDS011;66757;44.024;20.456;2023-04-07T03:45:00;60.15;;;32.88;;
66169;SDS011;66757;44.024;20.456;2023-04-07T03:47:26;59.50;;;33.13;;
66169;SDS011;66757;44.024;20.456;2023-04-07T03:49:51;70.72;;;41.42;;
66169;SDS011;66757;44.024;20.456;2023-04-07T03:52:16;52.25;;;31.42;;
66169;SDS011;66757;44.024;20.456;2023-04-07T03:54:42;42.20;;;26.65;;
66169;SDS011;66757;44.024;20.456;2023-04-07T03:57:08;38.58;;;23.20;;
66169;SDS011;66757;44.024;20.456;2023-04-07T04:02:22;36.97;;;22.77;;
66169;SDS011;66757;44.024;20.456;2023-04-07T04:04:47;39.47;;;23.58;;
66169;SDS011;66757;44.024;20.456;2023-04-07T04:07:14;44.83;;;25.17;;
66169;SDS011;66757;44.024;20.456;2023-04-07T04:09:40;47.80;;;24.73;;
66169;SDS011;66757;44.024;20.456;2023-04-07T04:12:05;42.65;;;24.15;;
66169;SDS011;66757;44.024;20.456;2023-04-07T04:14:30;43.00;;;23.92;;
66169;SDS011;66757;44.024;20.456;2023-04-07T04:16:56;37.88;;;22.88;;
66169;SDS011;66757;44.024;20.456;2023-04-07T04:19:21;36.30;;;22.63;;
66169;SDS011;66757;44.024;20.456;2023-04-07T04:21:46;38.50;;;22.90;;
66169;SDS011;66757;44.024;20.456;2023-04-07T04:24:12;40.50;;;22.40;;
66169;SDS011;66757;44.024;20.456;2023-04-07T04:26:37;40.55;;;23.77;;
66169;SDS011;66757;44.024;20.456;2023-04-07T04:29:02;47.35;;;24.73;;
66169;SDS011;66757;44.024;20.456;2023-04-07T04:31:28;49.75;;;26.05;;
66169;SDS011;66757;44.024;20.456;2023-04-07T04:33:53;47.28;;;27.02;;
66169;SDS011;66757;44.024;20.456;2023-04-07T04:36:19;42.03;;;24.42;;
66169;SDS011;66757;44.024;20.456;2023-04-07T04:38:44;45.47;;;23.58;;
66169;SDS011;66757;44.024;20.456;2023-04-07T04:41:10;48.70;;;24.40;;
66169;SDS011;66757;44.024;20.456;2023-04-07T04:43:35;40.95;;;22.55;;
66169;SDS011;66757;44.024;20.456;2023-04-07T04:46:00;34.13;;;20.85;;
66169;SDS011;66757;44.024;20.456;2023-04-07T04:48:26;39.25;;;22.38;;
66169;SDS011;66757;44.024;20.456;2023-04-07T04:50:52;34.55;;;21.23;;
66169;SDS011;66757;44.024;20.456;2023-04-07T04:53:17;35.92;;;21.20;;
66169;SDS011;66757;44.024;20.456;2023-04-07T04:55:44;39.22;;;21.20;;
66169;SDS011;66757;44.024;20.456;2023-04-07T04:58:12;35.15;;;20.15;;
66169;SDS011;66757;44.024;20.456;2023-04-07T05:00:37;37.63;;;22.48;;
66169;SDS011;66757;44.024;20.456;2023-04-07T05:03:02;49.67;;;25.73;;
66169;SDS011;66757;44.024;20.456;2023-04-07T05:05:28;74.50;;;43.35;;
66169;SDS011;66757;44.024;20.456;2023-04-07T05:07:53;83.40;;;49.67;;
66169;SDS011;66757;44.024;20.456;2023-04-07T05:10:19;84.47;;;49.55;;
66169;SDS011;66757;44.024;20.456;2023-04-07T05:12:44;77.97;;;44.88;;
66169;SDS011;66757;44.024;20.456;2023-04-07T05:15:10;72.85;;;42.83;;
66169;SDS011;66757;44.024;20.456;2023-04-07T05:17:35;64.03;;;34.15;;
66169;SDS011;66757;44.024;20.456;2023-04-07T05:20:01;45.90;;;27.92;;
66169;SDS011;66757;44.024;20.456;2023-04-07T05:22:26;41.75;;;26.35;;
66169;SDS011;66757;44.024;20.456;2023-04-07T05:24:52;34.30;;;21.48;;
66169;SDS011;66757;44.024;20.456;2023-04-07T05:27:19;48.22;;;31.23;;
66169;SDS011;66757;44.024;20.456;2023-04-07T05:29:44;211.55;;;106.13;;
66169;SDS011;66757;44.024;20.456;2023-04-07T05:32:10;42.20;;;26.77;;
66169;SDS011;66757;44.024;20.456;2023-04-07T05:34:36;34.20;;;23.15;;
66169;SDS011;66757;44.024;20.456;2023-04-07T05:37:01;47.15;;;31.33;;
66169;SDS011;66757;44.024;20.456;2023-04-07T05:39:26;32.08;;;19.65;;
66169;SDS011;66757;44.024;20.456;2023-04-07T05:41:52;31.40;;;20.40;;
66169;SDS011;66757;44.024;20.456;2023-04-07T05:44:17;28.38;;;18.27;;
66169;SDS011;66757;44.024;20.456;2023-04-07T05:46:42;30.60;;;18.77;;
66169;SDS011;66757;44.024;20.456;2023-04-07T05:49:08;41.50;;;23.95;;
66169;SDS011;66757;44.024;20.456;2023-04-07T05:51:33;52.30;;;28.67;;
66169;SDS011;66757;44.024;20.456;2023-04-07T05:54:00;52.60;;;30.80;;
66169;SDS011;66757;44.024;20.456;2023-04-07T05:56:28;54.78;;;32.20;;
66169;SDS011;66757;44.024;20.456;2023-04-07T05:58:54;50.08;;;29.70;;
66169;SDS011;66757;44.024;20.456;2023-04-07T06:01:19;50.10;;;29.40;;
66169;SDS011;66757;44.024;20.456;2023-04-07T06:03:45;51.65;;;31.88;;
66169;SDS011;66757;44.024;20.456;2023-04-07T06:06:10;37.00;;;19.92;;
66169;SDS011;66757;44.024;20.456;2023-04-07T06:08:35;29.92;;;18.25;;
66169;SDS011;66757;44.024;20.456;2023-04-07T06:11:01;32.17;;;18.52;;
66169;SDS011;66757;44.024;20.456;2023-04-07T06:13:26;34.10;;;20.80;;
66169;SDS011;66757;44.024;20.456;2023-04-07T06:15:53;36.85;;;20.42;;
66169;SDS011;66757;44.024;20.456;2023-04-07T06:18:18;48.58;;;25.40;;
66169;SDS011;66757;44.024;20.456;2023-04-07T06:20:44;30.73;;;15.82;;
66169;SDS011;66757;44.024;20.456;2023-04-07T06:23:09;29.10;;;20.58;;
66169;SDS011;66757;44.024;20.456;2023-04-07T06:25:36;47.33;;;25.63;;
66169;SDS011;66757;44.024;20.456;2023-04-07T06:28:02;29.02;;;19.40;;
66169;SDS011;66757;44.024;20.456;2023-04-07T06:30:27;36.40;;;22.40;;
66169;SDS011;66757;44.024;20.456;2023-04-07T06:32:52;67.32;;;32.03;;
66169;SDS011;66757;44.024;20.456;2023-04-07T06:35:19;38.00;;;19.02;;
66169;SDS011;66757;44.024;20.456;2023-04-07T06:37:44;50.40;;;25.73;;
66169;SDS011;66757;44.024;20.456;2023-04-07T06:40:10;37.35;;;20.98;;
66169;SDS011;66757;44.024;20.456;2023-04-07T06:42:35;25.33;;;16.52;;
66169;SDS011;66757;44.024;20.456;2023-04-07T06:45:00;104.82;;;63.67;;
66169;SDS011;66757;44.024;20.456;2023-04-07T06:47:26;31.90;;;22.10;;
66169;SDS011;66757;44.024;20.456;2023-04-07T06:49:52;24.50;;;15.65;;
66169;SDS011;66757;44.024;20.456;2023-04-07T06:52:17;28.83;;;17.13;;
66169;SDS011;66757;44.024;20.456;2023-04-07T06:54:43;34.17;;;20.40;;
66169;SDS011;66757;44.024;20.456;2023-04-07T06:57:09;37.30;;;20.25;;
66169;SDS011;66757;44.024;20.456;2023-04-07T06:59:39;36.20;;;22.55;;
66169;SDS011;66757;44.024;20.456;2023-04-07T07:02:04;30.77;;;19.58;;
66169;SDS011;66757;44.024;20.456;2023-04-07T07:04:31;24.00;;;16.63;;
66169;SDS011;66757;44.024;20.456;2023-04-07T07:06:56;25.00;;;17.85;;
66169;SDS011;66757;44.024;20.456;2023-04-07T07:09:22;35.88;;;23.13;;
66169;SDS011;66757;44.024;20.456;2023-04-07T07:11:47;30.70;;;20.85;;
66169;SDS011;66757;44.024;20.456;2023-04-07T07:14:13;38.03;;;22.60;;
66169;SDS011;66757;44.024;20.456;2023-04-07T07:16:39;29.65;;;19.05;;
66169;SDS011;66757;44.024;20.456;2023-04-07T07:19:05;33.85;;;21.92;;
66169;SDS011;66757;44.024;20.456;2023-04-07T07:21:30;48.38;;;30.13;;
66169;SDS011;66757;44.024;20.456;2023-04-07T07:23:56;28.75;;;19.75;;
66169;SDS011;66757;44.024;20.456;2023-04-07T07:26:21;26.70;;;18.38;;
66169;SDS011;66757;44.024;20.456;2023-04-07T07:28:47;30.35;;;20.15;;
66169;SDS011;66757;44.024;20.456;2023-04-07T07:31:12;30.90;;;19.08;;
66169;SDS011;66757;44.024;20.456;2023-04-07T07:33:40;38.78;;;24.52;;
66169;SDS011;66757;44.024;20.456;2023-04-07T07:36:08;31.02;;;20.48;;
66169;SDS011;66757;44.024;20.456;2023-04-07T07:38:33;26.42;;;18.60;;
66169;SDS011;66757;44.024;20.456;2023-04-07T07:40:59;35.03;;;22.17;;
66169;SDS011;66757;44.024;20.456;2023-04-07T07:43:25;32.47;;;22.20;;
66169;SDS011;66757;44.024;20.456;2023-04-07T07:45:51;28.83;;;20.33;;
66169;SDS011;66757;44.024;20.456;2023-04-07T07:48:16;28.02;;;18.00;;
66169;SDS011;66757;44.024;20.456;2023-04-07T07:50:43;31.77;;;20.67;;
66169;SDS011;66757;44.024;20.456;2023-04-07T07:53:09;22.38;;;17.42;;
66169;SDS011;66757;44.024;20.456;2023-04-07T07:55:34;23.27;;;15.65;;
66169;SDS011;66757;44.024;20.456;2023-04-07T07:58:00;26.70;;;18.48;;
66169;SDS011;66757;44.024;20.456;2023-04-07T08:00:25;31.00;;;21.95;;
66169;SDS011;66757;44.024;20.456;2023-04-07T08:02:50;30.45;;;20.98;;
66169;SDS011;66757;44.024;20.456;2023-04-07T08:05:16;26.73;;;20.08;;
66169;SDS011;66757;44.024;20.456;2023-04-07T08:07:41;30.38;;;21.88;;
66169;SDS011;66757;44.024;20.456;2023-04-07T08:10:07;36.15;;;23.30;;
66169;SDS011;66757;44.024;20.456;2023-04-07T08:12:33;29.40;;;19.95;;
66169;SDS011;66757;44.024;20.456;2023-04-07T08:14:58;31.08;;;19.67;;
66169;SDS011;66757;44.024;20.456;2023-04-07T08:17:24;30.33;;;20.67;;
66169;SDS011;66757;44.024;20.456;2023-04-07T08:19:49;32.15;;;23.17;;
66169;SDS011;66757;44.024;20.456;2023-04-07T08:22:15;22.83;;;16.88;;
66169;SDS011;66757;44.024;20.456;2023-04-07T08:24:41;23.08;;;16.80;;
66169;SDS011;66757;44.024;20.456;2023-04-07T08:27:06;29.52;;;18.02;;
66169;SDS011;66757;44.024;20.456;2023-04-07T08:29:32;24.40;;;17.25;;
66169;SDS011;66757;44.024;20.456;2023-04-07T08:31:57;23.05;;;16.55;;
66169;SDS011;66757;44.024;20.456;2023-04-07T08:34:22;19.38;;;14.13;;
66169;SDS011;66757;44.024;20.456;2023-04-07T08:36:48;19.80;;;12.88;;
66169;SDS011;66757;44.024;20.456;2023-04-07T08:39:13;25.63;;;17.77;;
66169;SDS011;66757;44.024;20.456;2023-04-07T08:41:39;23.15;;;15.35;;
66169;SDS011;66757;44.024;20.456;2023-04-07T08:44:05;20.88;;;14.95;;
66169;SDS011;66757;44.024;20.456;2023-04-07T08:46:32;30.98;;;21.52;;
66169;SDS011;66757;44.024;20.456;2023-04-07T08:48:57;28.20;;;17.90;;
66169;SDS011;66757;44.024;20.456;2023-04-07T08:51:27;32.78;;;22.67;;
66169;SDS011;66757;44.024;20.456;2023-04-07T08:53:53;30.05;;;21.33;;
66169;SDS011;66757;44.024;20.456;2023-04-07T08:56:22;40.63;;;24.67;;
66169;SDS011;66757;44.024;20.456;2023-04-07T08:58:48;23.75;;;17.48;;
66169;SDS011;66757;44.024;20.456;2023-04-07T09:01:13;27.95;;;18.85;;
66169;SDS011;66757;44.024;20.456;2023-04-07T09:03:41;31.20;;;20.17;;
66169;SDS011;66757;44.024;20.456;2023-04-07T09:06:06;18.80;;;13.93;;
66169;SDS011;66757;44.024;20.456;2023-04-07T09:08:31;25.00;;;16.50;;
66169;SDS011;66757;44.024;20.456;2023-04-07T09:10:57;19.15;;;13.50;;
66169;SDS011;66757;44.024;20.456;2023-04-07T09:13:25;27.42;;;18.38;;
66169;SDS011;66757;44.024;20.456;2023-04-07T09:15:51;23.77;;;16.30;;
66169;SDS011;66757;44.024;20.456;2023-04-07T09:18:16;29.50;;;20.38;;
66169;SDS011;66757;44.024;20.456;2023-04-07T09:23:37;26.88;;;18.40;;
66169;SDS011;66757;44.024;20.456;2023-04-07T09:28:47;33.28;;;22.38;;
66169;SDS011;66757;44.024;20.456;2023-04-07T09:31:14;23.95;;;16.55;;
66169;SDS011;66757;44.024;20.456;2023-04-07T09:33:40;20.42;;;14.43;;
66169;SDS011;66757;44.024;20.456;2023-04-07T09:36:05;40.20;;;24.80;;
66169;SDS011;66757;44.024;20.456;2023-04-07T09:38:34;32.55;;;22.02;;
66169;SDS011;66757;44.024;20.456;2023-04-07T09:41:10;32.75;;;20.85;;
66169;SDS011;66757;44.024;20.456;2023-04-07T09:43:39;22.27;;;15.75;;
66169;SDS011;66757;44.024;20.456;2023-04-07T09:46:14;27.23;;;16.77;;
66169;SDS011;66757;44.024;20.456;2023-04-07T09:51:06;27.65;;;18.55;;
66169;SDS011;66757;44.024;20.456;2023-04-07T09:53:45;39.15;;;23.10;;
66169;SDS011;66757;44.024;20.456;2023-04-07T09:56:11;27.80;;;18.88;;
66169;SDS011;66757;44.024;20.456;2023-04-07T09:58:38;23.35;;;16.92;;
66169;SDS011;66757;44.024;20.456;2023-04-07T10:01:07;36.05;;;20.65;;
66169;SDS011;66757;44.024;20.456;2023-04-07T10:03:34;32.65;;;19.70;;
66169;SDS011;66757;44.024;20.456;2023-04-07T10:05:59;52.70;;;29.80;;
66169;SDS011;66757;44.024;20.456;2023-04-07T10:08:25;36.13;;;22.27;;
66169;SDS011;66757;44.024;20.456;2023-04-07T10:10:52;27.55;;;18.83;;
66169;SDS011;66757;44.024;20.456;2023-04-07T10:13:18;35.13;;;23.85;;
66169;SDS011;66757;44.024;20.456;2023-04-07T10:15:43;43.55;;;30.83;;
66169;SDS011;66757;44.024;20.456;2023-04-07T10:18:09;31.08;;;22.20;;
66169;SDS011;66757;44.024;20.456;2023-04-07T10:20:35;32.60;;;23.25;;
66169;SDS011;66757;44.024;20.456;2023-04-07T10:23:05;34.22;;;23.10;;
66169;SDS011;66757;44.024;20.456;2023-04-07T10:25:32;36.20;;;18.38;;
66169;SDS011;66757;44.024;20.456;2023-04-07T10:28:03;27.52;;;18.38;;
66169;SDS011;66757;44.024;20.456;2023-04-07T10:30:29;31.67;;;19.30;;
66169;SDS011;66757;44.024;20.456;2023-04-07T10:32:57;28.50;;;17.63;;
66169;SDS011;66757;44.024;20.456;2023-04-07T10:35:24;26.27;;;18.17;;
66169;SDS011;66757;44.024;20.456;2023-04-07T10:38:09;31.20;;;20.90;;
66169;SDS011;66757;44.024;20.456;2023-04-07T10:40:35;40.28;;;23.38;;
66169;SDS011;66757;44.024;20.456;2023-04-07T10:43:00;40.22;;;23.27;;
66169;SDS011;66757;44.024;20.456;2023-04-07T10:48:10;26.90;;;19.30;;
66169;SDS011;66757;44.024;20.456;2023-04-07T10:50:36;41.45;;;24.52;;
66169;SDS011;66757;44.024;20.456;2023-04-07T10:53:08;32.17;;;21.55;;
66169;SDS011;66757;44.024;20.456;2023-04-07T10:55:43;23.08;;;16.40;;
66169;SDS011;66757;44.024;20.456;2023-04-07T10:58:18;27.05;;;18.23;;
66169;SDS011;66757;44.024;20.456;2023-04-07T11:03:23;39.60;;;29.10;;
66169;SDS011;66757;44.024;20.456;2023-04-07T11:05:49;24.08;;;19.10;;
66169;SDS011;66757;44.024;20.456;2023-04-07T11:08:30;23.15;;;16.45;;
66169;SDS011;66757;44.024;20.456;2023-04-07T11:10:57;22.00;;;16.88;;
66169;SDS011;66757;44.024;20.456;2023-04-07T11:13:23;34.08;;;24.48;;
66169;SDS011;66757;44.024;20.456;2023-04-07T11:15:49;27.58;;;19.20;;
66169;SDS011;66757;44.024;20.456;2023-04-07T11:18:18;32.78;;;21.30;;
66169;SDS011;66757;44.024;20.456;2023-04-07T11:20:45;66.72;;;37.00;;
66169;SDS011;66757;44.024;20.456;2023-04-07T11:23:11;21.08;;;15.18;;
66169;SDS011;66757;44.024;20.456;2023-04-07T11:25:36;31.55;;;21.08;;
66169;SDS011;66757;44.024;20.456;2023-04-07T11:28:05;40.97;;;25.90;;
66169;SDS011;66757;44.024;20.456;2023-04-07T11:30:31;47.08;;;31.27;;
66169;SDS011;66757;44.024;20.456;2023-04-07T11:32:57;25.33;;;18.88;;
66169;SDS011;66757;44.024;20.456;2023-04-07T11:35:22;31.50;;;22.80;;
66169;SDS011;66757;44.024;20.456;2023-04-07T11:37:47;25.48;;;18.40;;
66169;SDS011;66757;44.024;20.456;2023-04-07T11:40:13;27.95;;;19.58;;
66169;SDS011;66757;44.024;20.456;2023-04-07T11:42:56;23.55;;;17.15;;
66169;SDS011;66757;44.024;20.456;2023-04-07T11:45:21;26.23;;;18.65;;
66169;SDS011;66757;44.024;20.456;2023-04-07T11:47:46;32.85;;;21.40;;
66169;SDS011;66757;44.024;20.456;2023-04-07T11:50:13;46.15;;;27.08;;
66169;SDS011;66757;44.024;20.456;2023-04-07T11:52:43;32.63;;;22.98;;
66169;SDS011;66757;44.024;20.456;2023-04-07T11:55:18;41.83;;;28.40;;
66169;SDS011;66757;44.024;20.456;2023-04-07T11:57:45;30.20;;;20.75;;
66169;SDS011;66757;44.024;20.456;2023-04-07T12:00:11;41.03;;;28.30;;
66169;SDS011;66757;44.024;20.456;2023-04-07T12:02:37;36.78;;;25.08;;
66169;SDS011;66757;44.024;20.456;2023-04-07T12:05:05;38.00;;;24.95;;
66169;SDS011;66757;44.024;20.456;2023-04-07T12:07:31;34.50;;;23.77;;
66169;SDS011;66757;44.024;20.456;2023-04-07T12:10:13;27.10;;;20.65;;
66169;SDS011;66757;44.024;20.456;2023-04-07T12:12:43;26.73;;;19.27;;
66169;SDS011;66757;44.024;20.456;2023-04-07T12:15:09;33.45;;;27.23;;
66169;SDS011;66757;44.024;20.456;2023-04-07T12:17:34;28.33;;;21.05;;
66169;SDS011;66757;44.024;20.456;2023-04-07T12:20:00;26.20;;;19.30;;
66169;SDS011;66757;44.024;20.456;2023-04-07T12:22:25;26.33;;;18.75;;
66169;SDS011;66757;44.024;20.456;2023-04-07T12:24:51;28.58;;;21.73;;
66169;SDS011;66757;44.024;20.456;2023-04-07T12:27:17;23.92;;;17.40;;
66169;SDS011;66757;44.024;20.456;2023-04-07T12:29:42;23.70;;;16.67;;
66169;SDS011;66757;44.024;20.456;2023-04-07T12:32:08;31.23;;;22.25;;
66169;SDS011;66757;44.024;20.456;2023-04-07T12:34:33;25.25;;;16.83;;
66169;SDS011;66757;44.024;20.456;2023-04-07T12:37:01;29.05;;;19.35;;
66169;SDS011;66757;44.024;20.456;2023-04-07T12:39:26;27.63;;;20.17;;
66169;SDS011;66757;44.024;20.456;2023-04-07T12:41:52;27.48;;;20.08;;
66169;SDS011;66757;44.024;20.456;2023-04-07T12:44:17;25.30;;;18.48;;
66169;SDS011;66757;44.024;20.456;2023-04-07T12:46:43;29.60;;;20.45;;
66169;SDS011;66757;44.024;20.456;2023-04-07T12:49:08;35.63;;;25.15;;
66169;SDS011;66757;44.024;20.456;2023-04-07T12:51:34;32.33;;;22.48;;
66169;SDS011;66757;44.024;20.456;2023-04-07T12:54:00;29.63;;;19.92;;
66169;SDS011;66757;44.024;20.456;2023-04-07T12:56:25;26.95;;;18.50;;
66169;SDS011;66757;44.024;20.456;2023-04-07T12:58:52;30.60;;;22.25;;
66169;SDS011;66757;44.024;20.456;2023-04-07T13:01:18;29.23;;;21.48;;
66169;SDS011;66757;44.024;20.456;2023-04-07T13:03:43;27.35;;;20.08;;
66169;SDS011;66757;44.024;20.456;2023-04-07T13:06:09;35.80;;;24.10;;
66169;SDS011;66757;44.024;20.456;2023-04-07T13:08:35;47.47;;;30.08;;
66169;SDS011;66757;44.024;20.456;2023-04-07T13:11:00;29.65;;;21.58;;
66169;SDS011;66757;44.024;20.456;2023-04-07T13:13:25;39.83;;;25.42;;
66169;SDS011;66757;44.024;20.456;2023-04-07T13:15:51;41.15;;;26.52;;
66169;SDS011;66757;44.024;20.456;2023-04-07T13:18:17;36.35;;;24.88;;
66169;SDS011;66757;44.024;20.456;2023-04-07T13:20:42;31.25;;;20.50;;
66169;SDS011;66757;44.024;20.456;2023-04-07T13:23:07;29.48;;;21.08;;
66169;SDS011;66757;44.024;20.456;2023-04-07T13:25:33;26.27;;;20.60;;
66169;SDS011;66757;44.024;20.456;2023-04-07T13:27:59;28.77;;;20.73;;
66169;SDS011;66757;44.024;20.456;2023-04-07T13:30:25;23.40;;;16.27;;
66169;SDS011;66757;44.024;20.456;2023-04-07T13:32:50;27.30;;;18.17;;
66169;SDS011;66757;44.024;20.456;2023-04-07T13:35:16;27.30;;;19.60;;
66169;SDS011;66757;44.024;20.456;2023-04-07T13:37:42;21.23;;;16.33;;
66169;SDS011;66757;44.024;20.456;2023-04-07T13:40:07;31.42;;;20.10;;
66169;SDS011;66757;44.024;20.456;2023-04-07T13:42:35;29.30;;;18.58;;
66169;SDS011;66757;44.024;20.456;2023-04-07T13:45:00;27.35;;;20.08;;
66169;SDS011;66757;44.024;20.456;2023-04-07T13:47:27;27.90;;;17.10;;
66169;SDS011;66757;44.024;20.456;2023-04-07T13:50:20;35.00;;;22.52;;
66169;SDS011;66757;44.024;20.456;2023-04-07T13:52:45;20.60;;;16.23;;
66169;SDS011;66757;44.024;20.456;2023-04-07T13:55:11;28.42;;;19.85;;
66169;SDS011;66757;44.024;20.456;2023-04-07T13:57:36;29.38;;;18.73;;
66169;SDS011;66757;44.024;20.456;2023-04-07T14:00:01;33.47;;;18.35;;
66169;SDS011;66757;44.024;20.456;2023-04-07T14:02:28;30.30;;;18.55;;
66169;SDS011;66757;44.024;20.456;2023-04-07T14:04:54;23.30;;;15.32;;
66169;SDS011;66757;44.024;20.456;2023-04-07T14:07:20;21.45;;;14.98;;
66169;SDS011;66757;44.024;20.456;2023-04-07T14:09:46;21.15;;;14.77;;
66169;SDS011;66757;44.024;20.456;2023-04-07T14:12:12;17.48;;;12.30;;
66169;SDS011;66757;44.024;20.456;2023-04-07T14:14:38;25.45;;;17.80;;
66169;SDS011;66757;44.024;20.456;2023-04-07T14:17:04;30.25;;;21.60;;
66169;SDS011;66757;44.024;20.456;2023-04-07T14:19:30;26.20;;;17.15;;
66169;SDS011;66757;44.024;20.456;2023-04-07T14:21:57;36.67;;;22.55;;
66169;SDS011;66757;44.024;20.456;2023-04-07T14:24:22;16.02;;;12.48;;
66169;SDS011;66757;44.024;20.456;2023-04-07T14:26:48;22.73;;;13.93;;